sensor_id;sensor_type;location;lat;lon;timestamp;P1;durP1;ratioP1;P2;durP2;ratioP2
22660;SDS011;11497;52.222;21.246;2022-11-15T00:00:19;39.15;;;21.83;;
22660;SDS011;11497;52.222;21.246;2022-11-15T00:03:06;40.85;;;23.10;;
22660;SDS011;11497;52.222;21.246;2022-11-15T00:05:52;43.85;;;24.85;;
22660;SDS011;11497;52.222;21.246;2022-11-15T00:08:38;46.35;;;24.80;;
22660;SDS011;11497;52.222;21.246;2022-11-15T00:11:25;43.83;;;25.65;;
22660;SDS011;11497;52.222;21.246;2022-11-15T00:14:11;44.30;;;25.95;;
22660;SDS011;11497;52.222;21.246;2022-11-15T00:16:58;44.00;;;26.13;;
22660;SDS011;11497;52.222;21.246;2022-11-15T00:19:44;41.75;;;25.45;;
22660;SDS011;11497;52.222;21.246;2022-11-15T00:22:31;47.22;;;26.58;;
22660;SDS011;11497;52.222;21.246;2022-11-15T00:25:18;43.83;;;25.35;;
22660;SDS011;11497;52.222;21.246;2022-11-15T00:28:05;44.10;;;25.13;;
22660;SDS011;11497;52.222;21.246;2022-11-15T00:30:51;50.40;;;25.13;;
22660;SDS011;11497;52.222;21.246;2022-11-15T00:33:37;51.92;;;27.63;;
22660;SDS011;11497;52.222;21.246;2022-11-15T00:36:24;49.78;;;27.85;;
22660;SDS011;11497;52.222;21.246;2022-11-15T00:39:10;50.35;;;28.27;;
22660;SDS011;11497;52.222;21.246;2022-11-15T00:41:56;54.30;;;28.90;;
22660;SDS011;11497;52.222;21.246;2022-11-15T00:44:43;51.45;;;29.08;;
22660;SDS011;11497;52.222;21.246;2022-11-15T00:47:29;48.25;;;27.50;;
22660;SDS011;11497;52.222;21.246;2022-11-15T00:50:16;49.53;;;27.85;;
22660;SDS011;11497;52.222;21.246;2022-11-15T00:53:02;47.08;;;27.75;;
22660;SDS011;11497;52.222;21.246;2022-11-15T00:55:49;53.90;;;29.45;;
22660;SDS011;11497;52.222;21.246;2022-11-15T00:58:35;57.25;;;29.15;;
22660;SDS011;11497;52.222;21.246;2022-11-15T01:01:22;51.35;;;29.10;;
22660;SDS011;11497;52.222;21.246;2022-11-15T01:04:08;53.13;;;28.33;;
22660;SDS011;11497;52.222;21.246;2022-11-15T01:06:54;50.83;;;24.67;;
22660;SDS011;11497;52.222;21.246;2022-11-15T01:09:41;51.22;;;27.60;;
22660;SDS011;11497;52.222;21.246;2022-11-15T01:12:27;48.03;;;25.23;;
22660;SDS011;11497;52.222;21.246;2022-11-15T01:15:13;51.92;;;27.67;;
22660;SDS011;11497;52.222;21.246;2022-11-15T01:17:59;48.35;;;25.75;;
22660;SDS011;11497;52.222;21.246;2022-11-15T01:20:46;49.08;;;26.23;;
22660;SDS011;11497;52.222;21.246;2022-11-15T01:23:32;50.28;;;25.42;;
22660;SDS011;11497;52.222;21.246;2022-11-15T01:26:19;54.08;;;26.88;;
22660;SDS011;11497;52.222;21.246;2022-11-15T01:29:05;53.65;;;28.52;;
22660;SDS011;11497;52.222;21.246;2022-11-15T01:31:52;49.53;;;25.48;;
22660;SDS011;11497;52.222;21.246;2022-11-15T01:34:39;53.25;;;27.20;;
22660;SDS011;11497;52.222;21.246;2022-11-15T01:37:25;52.90;;;25.17;;
22660;SDS011;11497;52.222;21.246;2022-11-15T01:40:11;51.05;;;26.70;;
22660;SDS011;11497;52.222;21.246;2022-11-15T01:42:58;54.90;;;27.42;;
22660;SDS011;11497;52.222;21.246;2022-11-15T01:45:44;53.67;;;27.55;;
22660;SDS011;11497;52.222;21.246;2022-11-15T01:48:36;50.42;;;26.58;;
22660;SDS011;11497;52.222;21.246;2022-11-15T01:51:23;56.00;;;28.25;;
22660;SDS011;11497;52.222;21.246;2022-11-15T01:54:14;53.85;;;28.17;;
22660;SDS011;11497;52.222;21.246;2022-11-15T01:57:06;56.30;;;28.35;;
22660;SDS011;11497;52.222;21.246;2022-11-15T01:59:55;58.53;;;29.70;;
22660;SDS011;11497;52.222;21.246;2022-11-15T02:02:42;56.30;;;29.85;;
22660;SDS011;11497;52.222;21.246;2022-11-15T02:05:28;51.85;;;27.73;;
22660;SDS011;11497;52.222;21.246;2022-11-15T02:08:16;53.28;;;26.92;;
22660;SDS011;11497;52.222;21.246;2022-11-15T02:11:08;55.55;;;27.15;;
22660;SDS011;11497;52.222;21.246;2022-11-15T02:13:55;56.35;;;27.85;;
22660;SDS011;11497;52.222;21.246;2022-11-15T02:23:11;61.47;;;29.67;;
22660;SDS011;11497;52.222;21.246;2022-11-15T02:29:06;60.88;;;31.52;;
22660;SDS011;11497;52.222;21.246;2022-11-15T02:32:11;61.17;;;31.20;;
22660;SDS011;11497;52.222;21.246;2022-11-15T02:38:29;71.95;;;32.13;;
22660;SDS011;11497;52.222;21.246;2022-11-15T02:41:54;66.80;;;33.38;;
22660;SDS011;11497;52.222;21.246;2022-11-15T02:44:47;71.10;;;34.65;;
22660;SDS011;11497;52.222;21.246;2022-11-15T02:47:37;67.10;;;33.67;;
22660;SDS011;11497;52.222;21.246;2022-11-15T02:50:31;73.68;;;35.00;;
22660;SDS011;11497;52.222;21.246;2022-11-15T02:53:23;68.93;;;34.15;;
22660;SDS011;11497;52.222;21.246;2022-11-15T02:56:10;68.10;;;34.08;;
22660;SDS011;11497;52.222;21.246;2022-11-15T03:02:16;70.40;;;33.70;;
22660;SDS011;11497;52.222;21.246;2022-11-15T03:05:22;65.78;;;30.17;;
22660;SDS011;11497;52.222;21.246;2022-11-15T03:11:17;64.28;;;32.05;;
22660;SDS011;11497;52.222;21.246;2022-11-15T03:17:16;66.20;;;32.65;;
22660;SDS011;11497;52.222;21.246;2022-11-15T03:20:11;68.10;;;32.75;;
22660;SDS011;11497;52.222;21.246;2022-11-15T03:23:04;66.10;;;31.63;;
22660;SDS011;11497;52.222;21.246;2022-11-15T03:25:53;68.90;;;32.13;;
22660;SDS011;11497;52.222;21.246;2022-11-15T03:28:51;72.60;;;32.78;;
22660;SDS011;11497;52.222;21.246;2022-11-15T03:31:45;66.55;;;30.45;;
22660;SDS011;11497;52.222;21.246;2022-11-15T03:34:47;65.38;;;31.10;;
22660;SDS011;11497;52.222;21.246;2022-11-15T03:37:58;64.63;;;29.70;;
22660;SDS011;11497;52.222;21.246;2022-11-15T03:41:08;56.00;;;27.58;;
22660;SDS011;11497;52.222;21.246;2022-11-15T03:47:36;59.22;;;26.17;;
22660;SDS011;11497;52.222;21.246;2022-11-15T03:50:27;59.92;;;28.10;;
22660;SDS011;11497;52.222;21.246;2022-11-15T03:53:15;62.17;;;29.45;;
22660;SDS011;11497;52.222;21.246;2022-11-15T03:56:02;56.85;;;27.85;;
22660;SDS011;11497;52.222;21.246;2022-11-15T03:58:48;63.00;;;28.63;;
22660;SDS011;11497;52.222;21.246;2022-11-15T04:01:35;60.42;;;28.80;;
22660;SDS011;11497;52.222;21.246;2022-11-15T04:04:21;58.50;;;28.48;;
22660;SDS011;11497;52.222;21.246;2022-11-15T04:07:08;66.20;;;29.50;;
22660;SDS011;11497;52.222;21.246;2022-11-15T04:09:54;63.33;;;30.58;;
22660;SDS011;11497;52.222;21.246;2022-11-15T04:12:50;59.45;;;27.65;;
22660;SDS011;11497;52.222;21.246;2022-11-15T04:15:37;62.13;;;28.77;;
22660;SDS011;11497;52.222;21.246;2022-11-15T04:18:23;62.72;;;30.05;;
22660;SDS011;11497;52.222;21.246;2022-11-15T04:21:10;58.67;;;28.90;;
22660;SDS011;11497;52.222;21.246;2022-11-15T04:24:15;57.20;;;26.95;;
22660;SDS011;11497;52.222;21.246;2022-11-15T04:27:02;55.65;;;26.55;;
22660;SDS011;11497;52.222;21.246;2022-11-15T04:29:48;61.20;;;28.48;;
22660;SDS011;11497;52.222;21.246;2022-11-15T04:32:34;56.33;;;25.98;;
22660;SDS011;11497;52.222;21.246;2022-11-15T04:35:21;55.95;;;26.63;;
22660;SDS011;11497;52.222;21.246;2022-11-15T04:38:08;56.47;;;25.50;;
22660;SDS011;11497;52.222;21.246;2022-11-15T04:40:55;59.25;;;27.92;;
22660;SDS011;11497;52.222;21.246;2022-11-15T04:43:42;57.95;;;27.95;;
22660;SDS011;11497;52.222;21.246;2022-11-15T04:46:28;57.05;;;27.08;;
22660;SDS011;11497;52.222;21.246;2022-11-15T04:49:14;62.42;;;27.13;;
22660;SDS011;11497;52.222;21.246;2022-11-15T04:52:00;62.08;;;27.20;;
22660;SDS011;11497;52.222;21.246;2022-11-15T04:54:46;62.13;;;29.23;;
22660;SDS011;11497;52.222;21.246;2022-11-15T04:57:33;61.00;;;28.13;;
22660;SDS011;11497;52.222;21.246;2022-11-15T05:00:20;59.05;;;27.13;;
22660;SDS011;11497;52.222;21.246;2022-11-15T05:03:06;61.78;;;27.80;;
22660;SDS011;11497;52.222;21.246;2022-11-15T05:06:13;59.88;;;27.77;;
22660;SDS011;11497;52.222;21.246;2022-11-15T05:09:00;65.35;;;28.52;;
22660;SDS011;11497;52.222;21.246;2022-11-15T05:11:46;57.05;;;27.67;;
22660;SDS011;11497;52.222;21.246;2022-11-15T05:14:33;59.25;;;27.40;;
22660;SDS011;11497;52.222;21.246;2022-11-15T05:17:19;63.13;;;28.98;;
22660;SDS011;11497;52.222;21.246;2022-11-15T05:20:05;61.78;;;27.58;;
22660;SDS011;11497;52.222;21.246;2022-11-15T05:22:52;68.13;;;28.15;;
22660;SDS011;11497;52.222;21.246;2022-11-15T05:25:40;63.60;;;28.77;;
22660;SDS011;11497;52.222;21.246;2022-11-15T05:28:27;62.65;;;28.88;;
22660;SDS011;11497;52.222;21.246;2022-11-15T05:31:15;64.18;;;29.08;;
22660;SDS011;11497;52.222;21.246;2022-11-15T05:34:01;65.40;;;28.20;;
22660;SDS011;11497;52.222;21.246;2022-11-15T05:36:50;66.60;;;28.98;;
22660;SDS011;11497;52.222;21.246;2022-11-15T05:39:37;66.30;;;30.25;;
22660;SDS011;11497;52.222;21.246;2022-11-15T05:42:23;69.10;;;30.15;;
22660;SDS011;11497;52.222;21.246;2022-11-15T05:45:12;69.68;;;30.52;;
22660;SDS011;11497;52.222;21.246;2022-11-15T05:47:58;69.30;;;31.35;;
22660;SDS011;11497;52.222;21.246;2022-11-15T05:50:50;70.47;;;30.90;;
22660;SDS011;11497;52.222;21.246;2022-11-15T05:53:37;74.68;;;32.92;;
22660;SDS011;11497;52.222;21.246;2022-11-15T05:56:24;72.53;;;31.95;;
22660;SDS011;11497;52.222;21.246;2022-11-15T05:59:11;71.57;;;31.15;;
22660;SDS011;11497;52.222;21.246;2022-11-15T06:01:58;73.10;;;30.98;;
22660;SDS011;11497;52.222;21.246;2022-11-15T06:04:45;78.45;;;31.88;;
22660;SDS011;11497;52.222;21.246;2022-11-15T06:07:31;71.63;;;30.80;;
22660;SDS011;11497;52.222;21.246;2022-11-15T06:10:17;66.53;;;30.40;;
22660;SDS011;11497;52.222;21.246;2022-11-15T06:13:04;67.82;;;28.50;;
22660;SDS011;11497;52.222;21.246;2022-11-15T06:15:50;67.18;;;28.50;;
22660;SDS011;11497;52.222;21.246;2022-11-15T06:18:40;71.80;;;28.23;;
22660;SDS011;11497;52.222;21.246;2022-11-15T06:21:26;72.30;;;29.77;;
22660;SDS011;11497;52.222;21.246;2022-11-15T06:24:15;68.80;;;28.73;;
22660;SDS011;11497;52.222;21.246;2022-11-15T06:27:01;72.13;;;27.65;;
22660;SDS011;11497;52.222;21.246;2022-11-15T06:29:47;73.95;;;28.42;;
22660;SDS011;11497;52.222;21.246;2022-11-15T06:32:33;76.78;;;28.85;;
22660;SDS011;11497;52.222;21.246;2022-11-15T06:35:20;73.72;;;29.33;;
22660;SDS011;11497;52.222;21.246;2022-11-15T06:38:08;75.32;;;28.90;;
22660;SDS011;11497;52.222;21.246;2022-11-15T06:41:00;76.28;;;30.40;;
22660;SDS011;11497;52.222;21.246;2022-11-15T06:43:49;73.93;;;29.48;;
22660;SDS011;11497;52.222;21.246;2022-11-15T06:46:35;79.65;;;28.48;;
22660;SDS011;11497;52.222;21.246;2022-11-15T06:49:21;80.28;;;30.20;;
22660;SDS011;11497;52.222;21.246;2022-11-15T06:52:07;77.35;;;30.85;;
22660;SDS011;11497;52.222;21.246;2022-11-15T06:54:54;81.93;;;30.38;;
22660;SDS011;11497;52.222;21.246;2022-11-15T06:57:50;74.13;;;28.98;;
22660;SDS011;11497;52.222;21.246;2022-11-15T07:00:37;79.53;;;27.80;;
22660;SDS011;11497;52.222;21.246;2022-11-15T07:03:24;75.55;;;29.35;;
22660;SDS011;11497;52.222;21.246;2022-11-15T07:06:11;78.15;;;29.13;;
22660;SDS011;11497;52.222;21.246;2022-11-15T07:08:57;74.32;;;28.77;;
22660;SDS011;11497;52.222;21.246;2022-11-15T07:11:43;71.60;;;28.50;;
22660;SDS011;11497;52.222;21.246;2022-11-15T07:14:29;81.85;;;30.17;;
22660;SDS011;11497;52.222;21.246;2022-11-15T07:17:16;75.93;;;28.77;;
22660;SDS011;11497;52.222;21.246;2022-11-15T07:20:02;77.88;;;30.08;;
22660;SDS011;11497;52.222;21.246;2022-11-15T07:22:49;75.18;;;28.33;;
22660;SDS011;11497;52.222;21.246;2022-11-15T07:25:35;82.10;;;29.88;;
22660;SDS011;11497;52.222;21.246;2022-11-15T07:28:22;73.32;;;29.35;;
22660;SDS011;11497;52.222;21.246;2022-11-15T07:31:09;76.38;;;28.45;;
22660;SDS011;11497;52.222;21.246;2022-11-15T07:33:55;80.90;;;30.90;;
22660;SDS011;11497;52.222;21.246;2022-11-15T07:36:41;77.18;;;29.38;;
22660;SDS011;11497;52.222;21.246;2022-11-15T07:39:27;78.32;;;29.15;;
22660;SDS011;11497;52.222;21.246;2022-11-15T07:42:13;74.78;;;29.38;;
22660;SDS011;11497;52.222;21.246;2022-11-15T07:45:39;70.63;;;28.52;;
22660;SDS011;11497;52.222;21.246;2022-11-15T07:48:27;66.63;;;25.95;;
22660;SDS011;11497;52.222;21.246;2022-11-15T07:51:28;71.72;;;26.63;;
22660;SDS011;11497;52.222;21.246;2022-11-15T07:54:14;75.72;;;28.25;;
22660;SDS011;11497;52.222;21.246;2022-11-15T07:57:00;70.68;;;26.88;;
22660;SDS011;11497;52.222;21.246;2022-11-15T07:59:51;66.40;;;26.33;;
22660;SDS011;11497;52.222;21.246;2022-11-15T08:02:38;63.67;;;25.52;;
22660;SDS011;11497;52.222;21.246;2022-11-15T08:05:25;70.55;;;27.27;;
22660;SDS011;11497;52.222;21.246;2022-11-15T08:08:12;56.33;;;23.95;;
22660;SDS011;11497;52.222;21.246;2022-11-15T08:10:58;65.82;;;27.42;;
22660;SDS011;11497;52.222;21.246;2022-11-15T08:13:44;62.15;;;24.35;;
22660;SDS011;11497;52.222;21.246;2022-11-15T08:16:31;58.75;;;24.95;;
22660;SDS011;11497;52.222;21.246;2022-11-15T08:19:17;63.22;;;25.13;;
22660;SDS011;11497;52.222;21.246;2022-11-15T08:22:03;67.75;;;27.15;;
22660;SDS011;11497;52.222;21.246;2022-11-15T08:24:49;65.47;;;26.73;;
22660;SDS011;11497;52.222;21.246;2022-11-15T08:27:36;62.90;;;26.35;;
22660;SDS011;11497;52.222;21.246;2022-11-15T08:30:23;66.60;;;26.50;;
22660;SDS011;11497;52.222;21.246;2022-11-15T08:33:13;68.18;;;26.58;;
22660;SDS011;11497;52.222;21.246;2022-11-15T08:36:00;61.92;;;25.17;;
22660;SDS011;11497;52.222;21.246;2022-11-15T08:38:46;60.05;;;26.17;;
22660;SDS011;11497;52.222;21.246;2022-11-15T08:41:34;70.28;;;27.40;;
22660;SDS011;11497;52.222;21.246;2022-11-15T08:44:22;59.58;;;26.02;;
22660;SDS011;11497;52.222;21.246;2022-11-15T08:47:11;65.63;;;25.55;;
22660;SDS011;11497;52.222;21.246;2022-11-15T08:49:58;69.32;;;26.95;;
22660;SDS011;11497;52.222;21.246;2022-11-15T08:52:45;63.67;;;25.13;;
22660;SDS011;11497;52.222;21.246;2022-11-15T08:55:35;63.15;;;27.30;;
22660;SDS011;11497;52.222;21.246;2022-11-15T08:58:22;69.18;;;27.30;;
22660;SDS011;11497;52.222;21.246;2022-11-15T09:01:18;71.00;;;27.27;;
22660;SDS011;11497;52.222;21.246;2022-11-15T09:04:06;63.42;;;25.92;;
22660;SDS011;11497;52.222;21.246;2022-11-15T09:06:52;52.78;;;25.35;;
22660;SDS011;11497;52.222;21.246;2022-11-15T09:09:39;54.47;;;24.40;;
22660;SDS011;11497;52.222;21.246;2022-11-15T09:12:26;51.33;;;24.55;;
22660;SDS011;11497;52.222;21.246;2022-11-15T09:15:12;56.03;;;25.85;;
22660;SDS011;11497;52.222;21.246;2022-11-15T09:17:58;56.33;;;26.70;;
22660;SDS011;11497;52.222;21.246;2022-11-15T09:20:45;57.70;;;26.08;;
22660;SDS011;11497;52.222;21.246;2022-11-15T09:23:31;58.70;;;27.33;;
22660;SDS011;11497;52.222;21.246;2022-11-15T09:26:18;55.33;;;25.67;;
22660;SDS011;11497;52.222;21.246;2022-11-15T09:29:04;59.05;;;26.60;;
22660;SDS011;11497;52.222;21.246;2022-11-15T09:31:54;53.45;;;23.88;;
22660;SDS011;11497;52.222;21.246;2022-11-15T09:34:40;50.67;;;23.67;;
22660;SDS011;11497;52.222;21.246;2022-11-15T09:37:26;48.30;;;22.67;;
22660;SDS011;11497;52.222;21.246;2022-11-15T09:40:13;47.95;;;22.40;;
22660;SDS011;11497;52.222;21.246;2022-11-15T09:50:12;43.53;;;22.52;;
22660;SDS011;11497;52.222;21.246;2022-11-15T09:52:46;44.78;;;21.90;;
22660;SDS011;11497;52.222;21.246;2022-11-15T09:55:15;52.05;;;23.45;;
22660;SDS011;11497;52.222;21.246;2022-11-15T09:57:50;47.25;;;22.83;;
22660;SDS011;11497;52.222;21.246;2022-11-15T10:03:16;50.03;;;24.00;;
22660;SDS011;11497;52.222;21.246;2022-11-15T10:05:49;53.90;;;24.80;;
22660;SDS011;11497;52.222;21.246;2022-11-15T10:11:05;49.35;;;24.00;;
22660;SDS011;11497;52.222;21.246;2022-11-15T10:13:57;47.42;;;23.75;;
22660;SDS011;11497;52.222;21.246;2022-11-15T10:16:43;52.38;;;25.60;;
22660;SDS011;11497;52.222;21.246;2022-11-15T10:22:23;52.78;;;22.98;;
22660;SDS011;11497;52.222;21.246;2022-11-15T10:25:39;48.20;;;23.00;;
22660;SDS011;11497;52.222;21.246;2022-11-15T10:27:52;53.92;;;25.05;;
22660;SDS011;11497;52.222;21.246;2022-11-15T10:30:22;53.90;;;24.30;;
22660;SDS011;11497;52.222;21.246;2022-11-15T10:32:56;54.33;;;24.80;;
22660;SDS011;11497;52.222;21.246;2022-11-15T10:38:04;49.90;;;24.80;;
22660;SDS011;11497;52.222;21.246;2022-11-15T10:40:34;47.35;;;25.17;;
22660;SDS011;11497;52.222;21.246;2022-11-15T10:43:13;51.20;;;24.52;;
22660;SDS011;11497;52.222;21.246;2022-11-15T10:45:45;45.95;;;24.27;;
22660;SDS011;11497;52.222;21.246;2022-11-15T10:50:45;47.60;;;25.42;;
22660;SDS011;11497;52.222;21.246;2022-11-15T10:55:53;47.55;;;23.58;;
22660;SDS011;11497;52.222;21.246;2022-11-15T10:58:39;43.20;;;23.85;;
22660;SDS011;11497;52.222;21.246;2022-11-15T11:03:57;47.30;;;23.63;;
22660;SDS011;11497;52.222;21.246;2022-11-15T11:06:26;44.08;;;23.25;;
22660;SDS011;11497;52.222;21.246;2022-11-15T11:08:58;41.72;;;23.70;;
22660;SDS011;11497;52.222;21.246;2022-11-15T11:12:06;43.80;;;22.88;;
22660;SDS011;11497;52.222;21.246;2022-11-15T11:14:30;44.17;;;23.92;;
22660;SDS011;11497;52.222;21.246;2022-11-15T11:17:12;43.95;;;23.27;;
22660;SDS011;11497;52.222;21.246;2022-11-15T11:34:07;47.85;;;25.92;;
22660;SDS011;11497;52.222;21.246;2022-11-15T11:40:01;48.08;;;24.30;;
22660;SDS011;11497;52.222;21.246;2022-11-15T11:51:18;56.15;;;27.45;;
22660;SDS011;11497;52.222;21.246;2022-11-15T11:54:12;56.30;;;28.45;;
22660;SDS011;11497;52.222;21.246;2022-11-15T11:56:45;56.97;;;28.25;;
22660;SDS011;11497;52.222;21.246;2022-11-15T11:59:24;56.38;;;28.63;;
22660;SDS011;11497;52.222;21.246;2022-11-15T12:02:12;49.95;;;25.73;;
22660;SDS011;11497;52.222;21.246;2022-11-15T12:05:02;53.90;;;28.52;;
22660;SDS011;11497;52.222;21.246;2022-11-15T12:07:44;53.40;;;27.80;;
22660;SDS011;11497;52.222;21.246;2022-11-15T12:10:21;54.25;;;27.10;;
22660;SDS011;11497;52.222;21.246;2022-11-15T12:15:52;50.78;;;27.00;;
22660;SDS011;11497;52.222;21.246;2022-11-15T12:18:30;56.17;;;28.00;;
22660;SDS011;11497;52.222;21.246;2022-11-15T12:21:00;57.85;;;28.95;;
22660;SDS011;11497;52.222;21.246;2022-11-15T12:23:46;54.90;;;27.88;;
22660;SDS011;11497;52.222;21.246;2022-11-15T12:26:26;55.58;;;28.58;;
22660;SDS011;11497;52.222;21.246;2022-11-15T12:29:01;58.63;;;28.92;;
22660;SDS011;11497;52.222;21.246;2022-11-15T12:36:51;55.83;;;28.48;;
22660;SDS011;11497;52.222;21.246;2022-11-15T12:39:19;57.25;;;28.50;;
22660;SDS011;11497;52.222;21.246;2022-11-15T12:52:05;61.45;;;29.05;;
22660;SDS011;11497;52.222;21.246;2022-11-15T13:00:44;61.22;;;30.45;;
22660;SDS011;11497;52.222;21.246;2022-11-15T13:02:51;58.50;;;29.35;;
22660;SDS011;11497;52.222;21.246;2022-11-15T13:05:52;58.75;;;28.65;;
22660;SDS011;11497;52.222;21.246;2022-11-15T13:08:39;59.95;;;30.30;;
22660;SDS011;11497;52.222;21.246;2022-11-15T13:19:54;66.60;;;29.80;;
22660;SDS011;11497;52.222;21.246;2022-11-15T13:22:27;58.92;;;29.60;;
22660;SDS011;11497;52.222;21.246;2022-11-15T13:31:15;60.83;;;29.77;;
22660;SDS011;11497;52.222;21.246;2022-11-15T13:33:59;66.78;;;31.15;;
22660;SDS011;11497;52.222;21.246;2022-11-15T13:37:00;61.53;;;30.17;;
22660;SDS011;11497;52.222;21.246;2022-11-15T13:39:30;63.90;;;29.27;;
22660;SDS011;11497;52.222;21.246;2022-11-15T13:41:59;63.22;;;30.92;;
22660;SDS011;11497;52.222;21.246;2022-11-15T13:44:28;63.92;;;30.45;;
22660;SDS011;11497;52.222;21.246;2022-11-15T13:47:02;65.18;;;30.38;;
22660;SDS011;11497;52.222;21.246;2022-11-15T13:49:31;66.22;;;30.42;;
22660;SDS011;11497;52.222;21.246;2022-11-15T13:52:00;57.83;;;28.80;;
22660;SDS011;11497;52.222;21.246;2022-11-15T13:54:35;60.75;;;29.80;;
22660;SDS011;11497;52.222;21.246;2022-11-15T13:57:39;60.22;;;29.25;;
22660;SDS011;11497;52.222;21.246;2022-11-15T14:00:48;56.83;;;29.33;;
22660;SDS011;11497;52.222;21.246;2022-11-15T14:05:45;62.58;;;30.83;;
22660;SDS011;11497;52.222;21.246;2022-11-15T14:08:39;64.38;;;30.45;;
22660;SDS011;11497;52.222;21.246;2022-11-15T14:11:23;66.80;;;31.55;;
22660;SDS011;11497;52.222;21.246;2022-11-15T14:14:04;67.22;;;32.55;;
22660;SDS011;11497;52.222;21.246;2022-11-15T14:16:39;69.28;;;33.67;;
22660;SDS011;11497;52.222;21.246;2022-11-15T14:19:32;75.32;;;34.88;;
22660;SDS011;11497;52.222;21.246;2022-11-15T14:22:14;74.65;;;34.40;;
22660;SDS011;11497;52.222;21.246;2022-11-15T14:24:44;66.68;;;33.10;;
22660;SDS011;11497;52.222;21.246;2022-11-15T14:29:48;73.82;;;35.00;;
22660;SDS011;11497;52.222;21.246;2022-11-15T14:32:17;75.60;;;34.40;;
22660;SDS011;11497;52.222;21.246;2022-11-15T14:34:48;64.88;;;32.13;;
22660;SDS011;11497;52.222;21.246;2022-11-15T14:40:02;66.88;;;33.03;;
22660;SDS011;11497;52.222;21.246;2022-11-15T14:42:31;68.30;;;33.13;;
22660;SDS011;11497;52.222;21.246;2022-11-15T14:45:00;72.35;;;32.97;;
22660;SDS011;11497;52.222;21.246;2022-11-15T14:47:27;69.50;;;32.05;;
22660;SDS011;11497;52.222;21.246;2022-11-15T14:49:55;66.28;;;32.03;;
22660;SDS011;11497;52.222;21.246;2022-11-15T14:52:24;69.35;;;34.00;;
22660;SDS011;11497;52.222;21.246;2022-11-15T14:55:04;70.18;;;33.10;;
22660;SDS011;11497;52.222;21.246;2022-11-15T14:57:49;77.18;;;33.33;;
22660;SDS011;11497;52.222;21.246;2022-11-15T15:00:19;82.05;;;33.97;;
22660;SDS011;11497;52.222;21.246;2022-11-15T15:02:52;68.63;;;32.42;;
22660;SDS011;11497;52.222;21.246;2022-11-15T15:05:24;73.20;;;32.37;;
22660;SDS011;11497;52.222;21.246;2022-11-15T15:07:59;80.32;;;33.42;;
22660;SDS011;11497;52.222;21.246;2022-11-15T15:10:30;72.38;;;34.78;;
22660;SDS011;11497;52.222;21.246;2022-11-15T15:13:21;81.35;;;32.58;;
22660;SDS011;11497;52.222;21.246;2022-11-15T15:15:51;79.15;;;37.40;;
22660;SDS011;11497;52.222;21.246;2022-11-15T15:18:19;87.55;;;35.55;;
22660;SDS011;11497;52.222;21.246;2022-11-15T15:20:51;88.05;;;36.30;;
22660;SDS011;11497;52.222;21.246;2022-11-15T15:23:33;85.10;;;35.20;;
22660;SDS011;11497;52.222;21.246;2022-11-15T15:26:02;80.97;;;34.97;;
22660;SDS011;11497;52.222;21.246;2022-11-15T15:28:30;78.07;;;35.28;;
22660;SDS011;11497;52.222;21.246;2022-11-15T15:31:01;77.65;;;33.80;;
22660;SDS011;11497;52.222;21.246;2022-11-15T15:33:28;85.10;;;36.60;;
22660;SDS011;11497;52.222;21.246;2022-11-15T15:35:56;95.78;;;36.45;;
22660;SDS011;11497;52.222;21.246;2022-11-15T15:38:25;94.25;;;35.58;;
22660;SDS011;11497;52.222;21.246;2022-11-15T15:40:53;81.50;;;35.53;;
22660;SDS011;11497;52.222;21.246;2022-11-15T15:43:21;79.47;;;35.25;;
22660;SDS011;11497;52.222;21.246;2022-11-15T15:45:49;79.90;;;34.20;;
22660;SDS011;11497;52.222;21.246;2022-11-15T15:48:17;73.97;;;33.47;;
22660;SDS011;11497;52.222;21.246;2022-11-15T15:50:45;74.32;;;32.63;;
22660;SDS011;11497;52.222;21.246;2022-11-15T15:53:13;73.13;;;31.85;;
22660;SDS011;11497;52.222;21.246;2022-11-15T15:55:41;69.45;;;30.83;;
22660;SDS011;11497;52.222;21.246;2022-11-15T15:58:09;72.22;;;32.60;;
22660;SDS011;11497;52.222;21.246;2022-11-15T16:00:37;75.60;;;35.15;;
22660;SDS011;11497;52.222;21.246;2022-11-15T16:03:05;75.78;;;33.78;;
22660;SDS011;11497;52.222;21.246;2022-11-15T16:05:33;78.88;;;34.20;;
22660;SDS011;11497;52.222;21.246;2022-11-15T16:08:01;77.72;;;32.65;;
22660;SDS011;11497;52.222;21.246;2022-11-15T16:10:30;82.93;;;34.38;;
22660;SDS011;11497;52.222;21.246;2022-11-15T16:13:00;76.18;;;33.83;;
22660;SDS011;11497;52.222;21.246;2022-11-15T16:15:29;80.63;;;35.25;;
22660;SDS011;11497;52.222;21.246;2022-11-15T16:17:59;79.40;;;33.03;;
22660;SDS011;11497;52.222;21.246;2022-11-15T16:20:38;75.65;;;30.70;;
22660;SDS011;11497;52.222;21.246;2022-11-15T16:23:09;64.82;;;29.65;;
22660;SDS011;11497;52.222;21.246;2022-11-15T16:25:49;74.50;;;31.10;;
22660;SDS011;11497;52.222;21.246;2022-11-15T16:28:20;67.10;;;28.38;;
22660;SDS011;11497;52.222;21.246;2022-11-15T16:30:48;62.30;;;29.60;;
22660;SDS011;11497;52.222;21.246;2022-11-15T16:33:26;71.78;;;30.83;;
22660;SDS011;11497;52.222;21.246;2022-11-15T16:35:54;76.30;;;31.05;;
22660;SDS011;11497;52.222;21.246;2022-11-15T16:38:21;70.55;;;31.25;;
22660;SDS011;11497;52.222;21.246;2022-11-15T16:40:49;74.75;;;31.40;;
22660;SDS011;11497;52.222;21.246;2022-11-15T16:43:17;83.82;;;33.50;;
22660;SDS011;11497;52.222;21.246;2022-11-15T16:45:45;82.20;;;33.33;;
22660;SDS011;11497;52.222;21.246;2022-11-15T16:48:27;75.43;;;33.00;;
22660;SDS011;11497;52.222;21.246;2022-11-15T16:50:56;88.20;;;34.70;;
22660;SDS011;11497;52.222;21.246;2022-11-15T16:53:25;89.85;;;34.50;;
22660;SDS011;11497;52.222;21.246;2022-11-15T16:55:54;89.05;;;34.60;;
22660;SDS011;11497;52.222;21.246;2022-11-15T16:58:22;98.45;;;36.08;;
22660;SDS011;11497;52.222;21.246;2022-11-15T17:00:54;90.22;;;35.42;;
22660;SDS011;11497;52.222;21.246;2022-11-15T17:03:23;77.20;;;32.38;;
22660;SDS011;11497;52.222;21.246;2022-11-15T17:05:51;75.53;;;30.50;;
22660;SDS011;11497;52.222;21.246;2022-11-15T17:08:24;72.68;;;29.40;;
22660;SDS011;11497;52.222;21.246;2022-11-15T17:10:54;77.18;;;32.97;;
22660;SDS011;11497;52.222;21.246;2022-11-15T17:13:22;89.25;;;35.05;;
22660;SDS011;11497;52.222;21.246;2022-11-15T17:15:49;81.80;;;32.80;;
22660;SDS011;11497;52.222;21.246;2022-11-15T17:18:28;81.70;;;33.45;;
22660;SDS011;11497;52.222;21.246;2022-11-15T17:20:56;69.47;;;29.35;;
22660;SDS011;11497;52.222;21.246;2022-11-15T17:23:28;69.75;;;27.33;;
22660;SDS011;11497;52.222;21.246;2022-11-15T17:26:00;64.13;;;26.75;;
22660;SDS011;11497;52.222;21.246;2022-11-15T17:28:53;65.25;;;27.25;;
22660;SDS011;11497;52.222;21.246;2022-11-15T17:31:22;70.90;;;28.77;;
22660;SDS011;11497;52.222;21.246;2022-11-15T17:33:50;67.63;;;29.23;;
22660;SDS011;11497;52.222;21.246;2022-11-15T17:36:19;67.82;;;28.23;;
22660;SDS011;11497;52.222;21.246;2022-11-15T17:38:46;70.22;;;29.00;;
22660;SDS011;11497;52.222;21.246;2022-11-15T17:41:25;72.70;;;28.45;;